首页
METAR-TAF:

METAR-TAF

机场 :

布拉格瓦茨拉夫·哈維爾國際機場

布拉格, 捷克共和国

纬度: 50-06N, 经度: 014-15E, 海拔: 365米

当前天气观测

该预报发布于21分钟前的08:30 UTC
风速20节,风向东南
温度 14°C
湿度 55%
气压 1007 hPa
能见度10公里或以上
少量云层高于3600英尺

METAR: LKPR 230830Z 13020KT 9999 FEW036 14/05 Q1007 TEMPO 13022G42KT

时间: 10:51 (08:51 UTC)

预报

该预报发布于3小时和51分钟前的05:00 UTC
预报有效从23日的 06点(UTC)到 24日的 12点(UTC)
风速16节,风向东转东南
能见度10公里或以上
1500米以下无云,无积雨云
短暂存在
从 23日的 06点(UTC)到 24日的 00点(UTC)
风速18节,风向东转东南,有时为32节阵风
短暂存在
从 23日的 08点(UTC)到 23日的 20点(UTC)
能见度10公里或以上
多云层高于4000英尺
几率 40% :
短暂存在
从 23日的 10点(UTC)到 23日的 17点(UTC)
风速22节,风向东南,有时为42节阵风

TAF: LKPR 230500Z 2306/2412 11016KT CAVOK TEMPO 2306/2400 12018G32KT TEMPO 2308/2320 9999 BKN040 PROB40 TEMPO 2310/2317 13022G42KT

超过4000个机场的气象观测和天气预报(METAR&TAF报告)。

可查询的气象台以黄色和红色小点在地图上表示。

将鼠标移到小点上方,可查看气象台名称。

然后点击查看天气观测和预报。

如需切换地图:点击带黑十字的绿色按钮放大地图;点击带横线的绿色按钮缩小地图;或者点击绿色箭头查看邻近地区的地图。


METAR-TAF: